Terminal Aerodrome Forecast
Issued by NWS

Home | Current Version | Previous Version | Text Only | Print | Product List | Glossary On
Versions: 1 2 3 4 5 6 7 8 9 10 11 12 13 14 15 16 17
000
FTUS46 KMTR 290532
TAFSNS
TAF
KSNS 290532Z 2906/3006 26006KT P6SM SKC
     FM291000 VRB03KT P6SM SKC
     FM291500 13006KT P6SM SKC
     FM292000 27011KT P6SM SKC
     FM300400 27006KT P6SM FEW007=

USA.gov is the U.S. government's official web portal to all federal, state and local government web resources and services.